sensor_id;sensor_type;location;lat;lon;timestamp;temperature;humidity
16801;DHT22;8518;53.236;10.384;2024-01-10T00:00:52;-5.00;99.90
16801;DHT22;8518;53.236;10.384;2024-01-10T00:03:20;-5.90;99.90
16801;DHT22;8518;53.236;10.384;2024-01-10T00:05:48;-5.80;99.90
16801;DHT22;8518;53.236;10.384;2024-01-10T00:11:17;-5.80;99.90
16801;DHT22;8518;53.236;10.384;2024-01-10T00:13:46;-5.80;99.90
16801;DHT22;8518;53.236;10.384;2024-01-10T00:16:12;-5.80;99.90
16801;DHT22;8518;53.236;10.384;2024-01-10T00:21:41;-5.90;99.90
16801;DHT22;8518;53.236;10.384;2024-01-10T00:24:10;-6.10;99.90
16801;DHT22;8518;53.236;10.384;2024-01-10T00:26:35;-6.20;99.90
16801;DHT22;8518;53.236;10.384;2024-01-10T00:32:04;-6.40;99.90
16801;DHT22;8518;53.236;10.384;2024-01-10T00:34:29;-6.50;99.90
16801;DHT22;8518;53.236;10.384;2024-01-10T00:36:58;-6.60;99.90
16801;DHT22;8518;53.236;10.384;2024-01-10T00:42:26;-6.90;99.90
16801;DHT22;8518;53.236;10.384;2024-01-10T00:44:53;-7.00;99.90
16801;DHT22;8518;53.236;10.384;2024-01-10T00:47:19;-6.90;99.90
16801;DHT22;8518;53.236;10.384;2024-01-10T00:52:48;-6.60;99.90
16801;DHT22;8518;53.236;10.384;2024-01-10T00:55:13;-6.90;99.90
16801;DHT22;8518;53.236;10.384;2024-01-10T00:57:39;-7.10;99.90
16801;DHT22;8518;53.236;10.384;2024-01-10T01:00:05;-6.90;99.90
16801;DHT22;8518;53.236;10.384;2024-01-10T01:02:32;-7.10;99.90
16801;DHT22;8518;53.236;10.384;2024-01-10T01:04:58;-7.00;99.90
16801;DHT22;8518;53.236;10.384;2024-01-10T01:07:24;-7.00;99.90
16801;DHT22;8518;53.236;10.384;2024-01-10T01:12:52;-7.10;99.90
16801;DHT22;8518;53.236;10.384;2024-01-10T01:15:18;-7.00;99.90
16801;DHT22;8518;53.236;10.384;2024-01-10T01:17:46;-6.90;99.90
16801;DHT22;8518;53.236;10.384;2024-01-10T01:20:11;-6.60;99.90
16801;DHT22;8518;53.236;10.384;2024-01-10T01:22:37;-6.90;99.90
16801;DHT22;8518;53.236;10.384;2024-01-10T01:25:05;-7.00;99.90
16801;DHT22;8518;53.236;10.384;2024-01-10T01:27:30;-6.90;99.90
16801;DHT22;8518;53.236;10.384;2024-01-10T01:32:59;-6.50;99.90
16801;DHT22;8518;53.236;10.384;2024-01-10T01:38:28;-6.80;99.90
16801;DHT22;8518;53.236;10.384;2024-01-10T01:40:54;-6.80;99.90
16801;DHT22;8518;53.236;10.384;2024-01-10T01:43:23;-6.90;99.90
16801;DHT22;8518;53.236;10.384;2024-01-10T01:45:50;-6.50;99.90
16801;DHT22;8518;53.236;10.384;2024-01-10T01:51:22;-6.60;99.90
16801;DHT22;8518;53.236;10.384;2024-01-10T01:53:51;-6.50;99.90
16801;DHT22;8518;53.236;10.384;2024-01-10T01:56:17;-6.60;99.90
16801;DHT22;8518;53.236;10.384;2024-01-10T01:58:46;-6.60;99.90
16801;DHT22;8518;53.236;10.384;2024-01-10T02:01:13;-6.60;99.90
16801;DHT22;8518;53.236;10.384;2024-01-10T02:03:38;-6.60;99.90
16801;DHT22;8518;53.236;10.384;2024-01-10T02:06:07;-6.60;99.90
16801;DHT22;8518;53.236;10.384;2024-01-10T02:11:38;-6.20;99.90
16801;DHT22;8518;53.236;10.384;2024-01-10T02:14:03;-6.30;99.90
16801;DHT22;8518;53.236;10.384;2024-01-10T02:16:29;-6.30;99.90
16801;DHT22;8518;53.236;10.384;2024-01-10T02:22:00;-6.40;99.90
16801;DHT22;8518;53.236;10.384;2024-01-10T02:24:28;-6.40;99.90
16801;DHT22;8518;53.236;10.384;2024-01-10T02:26:53;-6.50;99.90
16801;DHT22;8518;53.236;10.384;2024-01-10T02:32:25;-6.30;99.90
16801;DHT22;8518;53.236;10.384;2024-01-10T02:34:51;-3.30;99.90
16801;DHT22;8518;53.236;10.384;2024-01-10T02:37:16;-6.60;99.90
16801;DHT22;8518;53.236;10.384;2024-01-10T02:42:48;-6.10;99.90
16801;DHT22;8518;53.236;10.384;2024-01-10T02:45:14;-6.40;99.90
16801;DHT22;8518;53.236;10.384;2024-01-10T02:47:42;-6.40;99.90
16801;DHT22;8518;53.236;10.384;2024-01-10T02:50:07;-6.60;99.90
16801;DHT22;8518;53.236;10.384;2024-01-10T02:52:34;-6.50;99.90
16801;DHT22;8518;53.236;10.384;2024-01-10T02:55:00;-6.30;99.90
16801;DHT22;8518;53.236;10.384;2024-01-10T02:57:28;-6.70;99.90
16801;DHT22;8518;53.236;10.384;2024-01-10T02:59:56;-6.80;99.90
16801;DHT22;8518;53.236;10.384;2024-01-10T03:02:22;-5.30;99.90
16801;DHT22;8518;53.236;10.384;2024-01-10T03:04:50;-6.50;99.90
16801;DHT22;8518;53.236;10.384;2024-01-10T03:07:16;-6.50;99.90
16801;DHT22;8518;53.236;10.384;2024-01-10T03:12:44;-6.30;99.90
16801;DHT22;8518;53.236;10.384;2024-01-10T03:15:10;-6.40;99.90
16801;DHT22;8518;53.236;10.384;2024-01-10T03:17:35;-6.50;99.90
16801;DHT22;8518;53.236;10.384;2024-01-10T03:20:01;-6.70;99.90
16801;DHT22;8518;53.236;10.384;2024-01-10T03:22:28;-6.70;99.90
16801;DHT22;8518;53.236;10.384;2024-01-10T03:24:54;-6.60;99.90
16801;DHT22;8518;53.236;10.384;2024-01-10T03:27:19;-6.60;99.90
16801;DHT22;8518;53.236;10.384;2024-01-10T03:32:48;-6.50;99.90
16801;DHT22;8518;53.236;10.384;2024-01-10T03:35:14;-5.50;99.90
16801;DHT22;8518;53.236;10.384;2024-01-10T03:37:40;-6.60;99.90
16801;DHT22;8518;53.236;10.384;2024-01-10T03:40:05;-6.60;99.90
16801;DHT22;8518;53.236;10.384;2024-01-10T03:42:31;-6.50;99.90
16801;DHT22;8518;53.236;10.384;2024-01-10T03:44:56;-6.70;99.90
16801;DHT22;8518;53.236;10.384;2024-01-10T03:47:25;-6.70;99.90
16801;DHT22;8518;53.236;10.384;2024-01-10T03:52:54;-5.80;99.90
16801;DHT22;8518;53.236;10.384;2024-01-10T03:55:19;-4.50;99.90
16801;DHT22;8518;53.236;10.384;2024-01-10T03:57:45;-6.60;99.90
16801;DHT22;8518;53.236;10.384;2024-01-10T04:00:13;-6.60;99.90
16801;DHT22;8518;53.236;10.384;2024-01-10T04:02:42;-6.30;99.90
16801;DHT22;8518;53.236;10.384;2024-01-10T04:05:08;-5.50;99.90
16801;DHT22;8518;53.236;10.384;2024-01-10T04:07:34;-6.30;99.90
16801;DHT22;8518;53.236;10.384;2024-01-10T04:10:00;-6.60;99.90
16801;DHT22;8518;53.236;10.384;2024-01-10T04:12:29;-5.30;99.90
16801;DHT22;8518;53.236;10.384;2024-01-10T04:14:54;-5.50;99.90
16801;DHT22;8518;53.236;10.384;2024-01-10T04:17:20;-6.30;99.90
16801;DHT22;8518;53.236;10.384;2024-01-10T04:22:48;-6.30;99.90
16801;DHT22;8518;53.236;10.384;2024-01-10T04:25:14;-6.20;99.90
16801;DHT22;8518;53.236;10.384;2024-01-10T04:27:39;-6.50;99.90
16801;DHT22;8518;53.236;10.384;2024-01-10T04:30:05;-6.10;99.90
16801;DHT22;8518;53.236;10.384;2024-01-10T04:32:36;-6.30;99.90
16801;DHT22;8518;53.236;10.384;2024-01-10T04:35:08;-6.20;99.90
16801;DHT22;8518;53.236;10.384;2024-01-10T04:37:36;-6.50;99.90
16801;DHT22;8518;53.236;10.384;2024-01-10T04:40:02;-6.20;99.90
16801;DHT22;8518;53.236;10.384;2024-01-10T04:42:27;-6.40;99.90
16801;DHT22;8518;53.236;10.384;2024-01-10T04:44:53;-6.50;99.90
16801;DHT22;8518;53.236;10.384;2024-01-10T04:47:18;-6.40;99.90
16801;DHT22;8518;53.236;10.384;2024-01-10T04:52:56;-6.30;99.90
16801;DHT22;8518;53.236;10.384;2024-01-10T04:55:25;-6.20;99.90
16801;DHT22;8518;53.236;10.384;2024-01-10T04:57:57;-6.30;99.90
16801;DHT22;8518;53.236;10.384;2024-01-10T05:00:22;-6.60;99.90
16801;DHT22;8518;53.236;10.384;2024-01-10T05:02:48;-6.40;99.90
16801;DHT22;8518;53.236;10.384;2024-01-10T05:05:13;-6.40;99.90
16801;DHT22;8518;53.236;10.384;2024-01-10T05:07:39;-6.60;99.90
16801;DHT22;8518;53.236;10.384;2024-01-10T05:10:05;-6.30;99.90
16801;DHT22;8518;53.236;10.384;2024-01-10T05:12:31;-6.30;99.90
16801;DHT22;8518;53.236;10.384;2024-01-10T05:14:56;-6.40;99.90
16801;DHT22;8518;53.236;10.384;2024-01-10T05:17:21;-6.30;99.90
16801;DHT22;8518;53.236;10.384;2024-01-10T05:22:50;-5.80;99.90
16801;DHT22;8518;53.236;10.384;2024-01-10T05:25:16;-6.40;99.90
16801;DHT22;8518;53.236;10.384;2024-01-10T05:27:52;-6.30;99.90
16801;DHT22;8518;53.236;10.384;2024-01-10T05:30:18;-6.30;99.90
16801;DHT22;8518;53.236;10.384;2024-01-10T05:32:44;-6.50;99.90
16801;DHT22;8518;53.236;10.384;2024-01-10T05:35:09;-6.50;99.90
16801;DHT22;8518;53.236;10.384;2024-01-10T05:37:38;-6.30;99.90
16801;DHT22;8518;53.236;10.384;2024-01-10T05:40:14;-6.30;99.90
16801;DHT22;8518;53.236;10.384;2024-01-10T05:42:40;-6.50;99.90
16801;DHT22;8518;53.236;10.384;2024-01-10T05:45:05;-6.60;99.90
16801;DHT22;8518;53.236;10.384;2024-01-10T05:47:31;-7.50;99.90
16801;DHT22;8518;53.236;10.384;2024-01-10T05:53:00;-6.50;99.90
16801;DHT22;8518;53.236;10.384;2024-01-10T05:55:26;-6.70;99.90
16801;DHT22;8518;53.236;10.384;2024-01-10T05:57:54;-6.20;99.90
16801;DHT22;8518;53.236;10.384;2024-01-10T06:00:21;-4.80;99.90
16801;DHT22;8518;53.236;10.384;2024-01-10T06:02:49;-6.40;99.90
16801;DHT22;8518;53.236;10.384;2024-01-10T06:05:15;-6.30;99.90
16801;DHT22;8518;53.236;10.384;2024-01-10T06:07:40;-6.70;99.90
16801;DHT22;8518;53.236;10.384;2024-01-10T06:10:06;-6.90;99.90
16801;DHT22;8518;53.236;10.384;2024-01-10T06:12:35;-6.30;99.90
16801;DHT22;8518;53.236;10.384;2024-01-10T06:15:01;-6.30;99.90
16801;DHT22;8518;53.236;10.384;2024-01-10T06:17:26;-6.30;99.90
16801;DHT22;8518;53.236;10.384;2024-01-10T06:22:56;-6.50;99.90
16801;DHT22;8518;53.236;10.384;2024-01-10T06:28:28;-6.60;99.90
16801;DHT22;8518;53.236;10.384;2024-01-10T06:30:53;-6.80;99.90
16801;DHT22;8518;53.236;10.384;2024-01-10T06:33:22;-6.60;99.90
16801;DHT22;8518;53.236;10.384;2024-01-10T06:35:47;-6.80;99.90
16801;DHT22;8518;53.236;10.384;2024-01-10T06:41:16;-5.70;99.90
16801;DHT22;8518;53.236;10.384;2024-01-10T06:43:41;-6.50;99.90
16801;DHT22;8518;53.236;10.384;2024-01-10T06:46:07;-6.40;99.90
16801;DHT22;8518;53.236;10.384;2024-01-10T06:51:36;-6.60;99.90
16801;DHT22;8518;53.236;10.384;2024-01-10T06:57:05;-7.10;99.90
16801;DHT22;8518;53.236;10.384;2024-01-10T06:59:30;-6.80;99.90
16801;DHT22;8518;53.236;10.384;2024-01-10T07:01:56;-7.00;99.90
16801;DHT22;8518;53.236;10.384;2024-01-10T07:04:22;-7.10;99.90
16801;DHT22;8518;53.236;10.384;2024-01-10T07:06:52;-7.30;99.90
16801;DHT22;8518;53.236;10.384;2024-01-10T07:12:20;-6.80;99.90
16801;DHT22;8518;53.236;10.384;2024-01-10T07:14:46;-4.80;99.90
16801;DHT22;8518;53.236;10.384;2024-01-10T07:17:11;-5.30;99.90
16801;DHT22;8518;53.236;10.384;2024-01-10T07:22:40;-5.10;99.90
16801;DHT22;8518;53.236;10.384;2024-01-10T07:25:07;-6.10;99.90
16801;DHT22;8518;53.236;10.384;2024-01-10T07:27:34;-6.90;99.90
16801;DHT22;8518;53.236;10.384;2024-01-10T07:29:59;-7.10;99.90
16801;DHT22;8518;53.236;10.384;2024-01-10T07:32:25;-7.00;99.90
16801;DHT22;8518;53.236;10.384;2024-01-10T07:34:53;-6.80;99.90
16801;DHT22;8518;53.236;10.384;2024-01-10T07:37:19;-6.80;99.90
16801;DHT22;8518;53.236;10.384;2024-01-10T07:42:50;-6.60;99.90
16801;DHT22;8518;53.236;10.384;2024-01-10T07:45:16;-6.70;99.90
16801;DHT22;8518;53.236;10.384;2024-01-10T07:47:41;-6.70;99.90
16801;DHT22;8518;53.236;10.384;2024-01-10T07:50:07;-6.60;99.90
16801;DHT22;8518;53.236;10.384;2024-01-10T07:52:33;-6.40;99.90
16801;DHT22;8518;53.236;10.384;2024-01-10T07:54:59;-5.40;99.90
16801;DHT22;8518;53.236;10.384;2024-01-10T07:57:28;-6.00;99.90
16801;DHT22;8518;53.236;10.384;2024-01-10T07:59:56;-5.40;99.90
16801;DHT22;8518;53.236;10.384;2024-01-10T08:02:22;-3.00;99.90
16801;DHT22;8518;53.236;10.384;2024-01-10T08:04:47;-5.10;99.90
16801;DHT22;8518;53.236;10.384;2024-01-10T08:07:13;-4.60;99.90
16801;DHT22;8518;53.236;10.384;2024-01-10T08:12:42;-3.60;99.90
16801;DHT22;8518;53.236;10.384;2024-01-10T08:18:10;-4.90;99.90
16801;DHT22;8518;53.236;10.384;2024-01-10T08:20:36;-5.30;99.90
16801;DHT22;8518;53.236;10.384;2024-01-10T08:23:01;-5.50;99.90
16801;DHT22;8518;53.236;10.384;2024-01-10T08:25:30;-5.40;99.90
16801;DHT22;8518;53.236;10.384;2024-01-10T08:30:58;-5.50;99.90
16801;DHT22;8518;53.236;10.384;2024-01-10T08:36:27;-5.40;99.90
16801;DHT22;8518;53.236;10.384;2024-01-10T08:41:56;-4.50;99.90
16801;DHT22;8518;53.236;10.384;2024-01-10T08:44:24;-6.00;99.90
16801;DHT22;8518;53.236;10.384;2024-01-10T08:46:49;-3.50;99.90
16801;DHT22;8518;53.236;10.384;2024-01-10T08:52:21;-3.00;99.90
16801;DHT22;8518;53.236;10.384;2024-01-10T08:54:52;-2.20;99.90
16801;DHT22;8518;53.236;10.384;2024-01-10T08:57:18;-2.50;99.90
16801;DHT22;8518;53.236;10.384;2024-01-10T08:59:43;-2.40;99.90
16801;DHT22;8518;53.236;10.384;2024-01-10T09:02:09;-2.00;99.90
16801;DHT22;8518;53.236;10.384;2024-01-10T09:04:35;-2.00;99.90
16801;DHT22;8518;53.236;10.384;2024-01-10T09:07:03;-1.90;99.90
16801;DHT22;8518;53.236;10.384;2024-01-10T09:12:32;-1.00;99.90
16801;DHT22;8518;53.236;10.384;2024-01-10T09:15:00;-0.90;99.90
16801;DHT22;8518;53.236;10.384;2024-01-10T09:17:26;-0.70;99.90
16801;DHT22;8518;53.236;10.384;2024-01-10T09:22:56;0.10;99.90
16801;DHT22;8518;53.236;10.384;2024-01-10T09:25:21;-0.30;99.90
16801;DHT22;8518;53.236;10.384;2024-01-10T09:27:47;-0.90;99.90
16801;DHT22;8518;53.236;10.384;2024-01-10T09:30:12;-1.10;99.90
16801;DHT22;8518;53.236;10.384;2024-01-10T09:32:39;-0.70;99.90
16801;DHT22;8518;53.236;10.384;2024-01-10T09:35:04;0.50;99.90
16801;DHT22;8518;53.236;10.384;2024-01-10T09:37:31;0.50;99.90
16801;DHT22;8518;53.236;10.384;2024-01-10T09:43:01;-0.30;99.90
16801;DHT22;8518;53.236;10.384;2024-01-10T09:45:27;2.70;99.90
16801;DHT22;8518;53.236;10.384;2024-01-10T09:47:55;2.70;99.90
16801;DHT22;8518;53.236;10.384;2024-01-10T09:50:20;3.10;99.90
16801;DHT22;8518;53.236;10.384;2024-01-10T09:52:53;4.30;99.90
16801;DHT22;8518;53.236;10.384;2024-01-10T09:55:20;6.30;99.90
16801;DHT22;8518;53.236;10.384;2024-01-10T09:57:49;7.90;94.50
16801;DHT22;8518;53.236;10.384;2024-01-10T10:00:20;11.40;81.20
16801;DHT22;8518;53.236;10.384;2024-01-10T10:02:48;10.90;65.80
16801;DHT22;8518;53.236;10.384;2024-01-10T10:05:16;10.50;53.10
16801;DHT22;8518;53.236;10.384;2024-01-10T10:07:51;8.70;47.80
16801;DHT22;8518;53.236;10.384;2024-01-10T10:10:18;12.40;44.90
16801;DHT22;8518;53.236;10.384;2024-01-10T10:12:45;11.50;42.20
16801;DHT22;8518;53.236;10.384;2024-01-10T10:15:11;12.70;41.30
16801;DHT22;8518;53.236;10.384;2024-01-10T10:17:38;14.30;38.40
16801;DHT22;8518;53.236;10.384;2024-01-10T10:20:26;15.00;32.60
16801;DHT22;8518;53.236;10.384;2024-01-10T10:23:02;15.20;29.60
16801;DHT22;8518;53.236;10.384;2024-01-10T10:25:37;16.00;25.40
16801;DHT22;8518;53.236;10.384;2024-01-10T10:31:10;16.20;20.70
16801;DHT22;8518;53.236;10.384;2024-01-10T10:36:42;16.80;14.00
16801;DHT22;8518;53.236;10.384;2024-01-10T10:42:10;19.00;9.90
16801;DHT22;8518;53.236;10.384;2024-01-10T10:47:41;17.80;7.20
16801;DHT22;8518;53.236;10.384;2024-01-10T10:50:08;19.20;6.90
16801;DHT22;8518;53.236;10.384;2024-01-10T10:52:36;18.70;6.80
16801;DHT22;8518;53.236;10.384;2024-01-10T10:55:10;21.90;9.50
16801;DHT22;8518;53.236;10.384;2024-01-10T10:57:37;18.90;8.20
16801;DHT22;8518;53.236;10.384;2024-01-10T11:00:04;17.20;5.00
16801;DHT22;8518;53.236;10.384;2024-01-10T11:02:33;19.00;6.00
16801;DHT22;8518;53.236;10.384;2024-01-10T11:05:01;16.80;7.80
16801;DHT22;8518;53.236;10.384;2024-01-10T11:07:27;20.10;5.30
16801;DHT22;8518;53.236;10.384;2024-01-10T11:22:09;18.00;3.50
16801;DHT22;8518;53.236;10.384;2024-01-10T11:24:35;17.20;3.80
16801;DHT22;8518;53.236;10.384;2024-01-10T11:27:11;15.60;5.00
16801;DHT22;8518;53.236;10.384;2024-01-10T11:32:40;17.70;3.60
16801;DHT22;8518;53.236;10.384;2024-01-10T11:35:11;18.30;3.60
16801;DHT22;8518;53.236;10.384;2024-01-10T11:37:43;18.20;3.50
16801;DHT22;8518;53.236;10.384;2024-01-10T11:40:09;18.40;1.80
16801;DHT22;8518;53.236;10.384;2024-01-10T11:42:44;18.50;3.30
16801;DHT22;8518;53.236;10.384;2024-01-10T11:45:35;18.60;2.00
16801;DHT22;8518;53.236;10.384;2024-01-10T11:51:04;20.00;1.90
16801;DHT22;8518;53.236;10.384;2024-01-10T11:53:42;20.70;3.80
16801;DHT22;8518;53.236;10.384;2024-01-10T11:56:08;19.10;1.00
16801;DHT22;8518;53.236;10.384;2024-01-10T11:58:51;18.70;2.80
16801;DHT22;8518;53.236;10.384;2024-01-10T12:01:26;18.50;1.70
16801;DHT22;8518;53.236;10.384;2024-01-10T12:03:52;18.10;1.70
16801;DHT22;8518;53.236;10.384;2024-01-10T12:06:19;19.10;1.30
16801;DHT22;8518;53.236;10.384;2024-01-10T12:11:49;20.20;1.00
16801;DHT22;8518;53.236;10.384;2024-01-10T12:17:17;19.10;1.00
16801;DHT22;8518;53.236;10.384;2024-01-10T12:22:47;19.40;1.00
16801;DHT22;8518;53.236;10.384;2024-01-10T12:25:14;21.60;1.20
16801;DHT22;8518;53.236;10.384;2024-01-10T12:27:39;20.20;1.00
16801;DHT22;8518;53.236;10.384;2024-01-10T12:30:05;18.20;1.00
16801;DHT22;8518;53.236;10.384;2024-01-10T12:32:32;19.60;1.00
16801;DHT22;8518;53.236;10.384;2024-01-10T12:34:59;18.00;1.00
16801;DHT22;8518;53.236;10.384;2024-01-10T12:37:31;20.00;1.00
16801;DHT22;8518;53.236;10.384;2024-01-10T12:39:57;15.20;1.20
16801;DHT22;8518;53.236;10.384;2024-01-10T12:42:22;18.40;1.80
16801;DHT22;8518;53.236;10.384;2024-01-10T12:44:52;16.60;1.00
16801;DHT22;8518;53.236;10.384;2024-01-10T12:47:22;17.80;1.40
16801;DHT22;8518;53.236;10.384;2024-01-10T12:52:54;17.70;1.00
16801;DHT22;8518;53.236;10.384;2024-01-10T12:55:20;17.40;1.00
16801;DHT22;8518;53.236;10.384;2024-01-10T12:57:45;17.30;1.00
16801;DHT22;8518;53.236;10.384;2024-01-10T13:00:14;20.10;2.20
16801;DHT22;8518;53.236;10.384;2024-01-10T13:02:40;18.30;1.00
16801;DHT22;8518;53.236;10.384;2024-01-10T13:05:06;17.40;1.00
16801;DHT22;8518;53.236;10.384;2024-01-10T13:07:38;18.10;1.00
16801;DHT22;8518;53.236;10.384;2024-01-10T13:10:04;16.80;1.00
16801;DHT22;8518;53.236;10.384;2024-01-10T13:12:29;17.50;2.30
16801;DHT22;8518;53.236;10.384;2024-01-10T13:14:55;16.10;1.00
16801;DHT22;8518;53.236;10.384;2024-01-10T13:17:24;16.30;1.00
16801;DHT22;8518;53.236;10.384;2024-01-10T13:22:52;16.50;1.00
16801;DHT22;8518;53.236;10.384;2024-01-10T13:25:20;16.90;2.90
16801;DHT22;8518;53.236;10.384;2024-01-10T13:27:49;16.20;1.00
16801;DHT22;8518;53.236;10.384;2024-01-10T13:30:16;16.00;1.80
16801;DHT22;8518;53.236;10.384;2024-01-10T13:32:41;16.30;3.00
16801;DHT22;8518;53.236;10.384;2024-01-10T13:35:07;14.00;1.10
16801;DHT22;8518;53.236;10.384;2024-01-10T13:37:33;16.00;2.50
16801;DHT22;8518;53.236;10.384;2024-01-10T13:39:59;15.40;2.20
16801;DHT22;8518;53.236;10.384;2024-01-10T13:42:25;17.10;6.00
16801;DHT22;8518;53.236;10.384;2024-01-10T13:44:50;15.40;2.70
16801;DHT22;8518;53.236;10.384;2024-01-10T13:47:20;16.50;3.30
16801;DHT22;8518;53.236;10.384;2024-01-10T13:52:50;14.70;1.60
16801;DHT22;8518;53.236;10.384;2024-01-10T13:55:15;14.30;3.50
16801;DHT22;8518;53.236;10.384;2024-01-10T13:57:43;13.70;4.60
16801;DHT22;8518;53.236;10.384;2024-01-10T14:00:10;13.00;4.00
16801;DHT22;8518;53.236;10.384;2024-01-10T14:02:40;12.50;6.70
16801;DHT22;8518;53.236;10.384;2024-01-10T14:05:05;11.60;9.70
16801;DHT22;8518;53.236;10.384;2024-01-10T14:07:32;11.70;12.10
16801;DHT22;8518;53.236;10.384;2024-01-10T14:13:01;12.00;10.30
16801;DHT22;8518;53.236;10.384;2024-01-10T14:15:26;11.10;12.60
16801;DHT22;8518;53.236;10.384;2024-01-10T14:17:52;11.50;13.20
16801;DHT22;8518;53.236;10.384;2024-01-10T14:20:19;11.40;13.40
16801;DHT22;8518;53.236;10.384;2024-01-10T14:22:46;10.10;13.90
16801;DHT22;8518;53.236;10.384;2024-01-10T14:25:12;12.20;15.30
16801;DHT22;8518;53.236;10.384;2024-01-10T14:27:39;12.70;16.50
16801;DHT22;8518;53.236;10.384;2024-01-10T14:30:05;10.60;17.20
16801;DHT22;8518;53.236;10.384;2024-01-10T14:32:33;11.00;18.20
16801;DHT22;8518;53.236;10.384;2024-01-10T14:34:59;10.30;19.80
16801;DHT22;8518;53.236;10.384;2024-01-10T14:37:24;9.40;20.80
16801;DHT22;8518;53.236;10.384;2024-01-10T14:42:53;8.60;22.40
16801;DHT22;8518;53.236;10.384;2024-01-10T14:45:22;9.40;24.70
16801;DHT22;8518;53.236;10.384;2024-01-10T14:47:48;6.80;24.70
16801;DHT22;8518;53.236;10.384;2024-01-10T14:50:14;7.40;28.50
16801;DHT22;8518;53.236;10.384;2024-01-10T14:52:40;7.30;34.20
16801;DHT22;8518;53.236;10.384;2024-01-10T14:55:05;5.50;42.00
16801;DHT22;8518;53.236;10.384;2024-01-10T14:57:31;5.30;53.70
16801;DHT22;8518;53.236;10.384;2024-01-10T14:59:56;4.50;78.40
16801;DHT22;8518;53.236;10.384;2024-01-10T15:02:22;4.00;91.20
16801;DHT22;8518;53.236;10.384;2024-01-10T15:04:47;3.40;92.10
16801;DHT22;8518;53.236;10.384;2024-01-10T15:07:13;2.80;98.20
16801;DHT22;8518;53.236;10.384;2024-01-10T15:12:42;1.40;99.90
16801;DHT22;8518;53.236;10.384;2024-01-10T15:15:09;1.00;99.90
16801;DHT22;8518;53.236;10.384;2024-01-10T15:17:37;0.70;99.90
16801;DHT22;8518;53.236;10.384;2024-01-10T15:20:03;-0.30;99.90
16801;DHT22;8518;53.236;10.384;2024-01-10T15:22:28;-0.30;99.90
16801;DHT22;8518;53.236;10.384;2024-01-10T15:25:00;-0.60;99.90
16801;DHT22;8518;53.236;10.384;2024-01-10T15:27:26;1.00;99.90
16801;DHT22;8518;53.236;10.384;2024-01-10T15:32:57;-1.80;99.90
16801;DHT22;8518;53.236;10.384;2024-01-10T15:35:23;-1.80;99.90
16801;DHT22;8518;53.236;10.384;2024-01-10T15:37:48;-2.40;99.90
16801;DHT22;8518;53.236;10.384;2024-01-10T15:40:14;-2.60;99.90
16801;DHT22;8518;53.236;10.384;2024-01-10T15:42:42;-2.70;99.90
16801;DHT22;8518;53.236;10.384;2024-01-10T15:45:08;-2.40;99.90
16801;DHT22;8518;53.236;10.384;2024-01-10T15:47:36;-2.80;99.90
16801;DHT22;8518;53.236;10.384;2024-01-10T15:50:01;-2.90;99.90
16801;DHT22;8518;53.236;10.384;2024-01-10T15:52:28;-2.90;99.90
16801;DHT22;8518;53.236;10.384;2024-01-10T15:54:53;-3.00;99.90
16801;DHT22;8518;53.236;10.384;2024-01-10T15:57:19;-4.00;99.90
16801;DHT22;8518;53.236;10.384;2024-01-10T15:59:45;-3.10;99.90
16801;DHT22;8518;53.236;10.384;2024-01-10T16:02:10;-4.10;99.90
16801;DHT22;8518;53.236;10.384;2024-01-10T16:04:36;-2.30;99.90
16801;DHT22;8518;53.236;10.384;2024-01-10T16:07:02;-2.00;99.90
16801;DHT22;8518;53.236;10.384;2024-01-10T16:12:31;-3.10;99.90
16801;DHT22;8518;53.236;10.384;2024-01-10T16:17:59;-3.20;99.90
16801;DHT22;8518;53.236;10.384;2024-01-10T16:20:25;-3.20;99.90
16801;DHT22;8518;53.236;10.384;2024-01-10T16:22:54;-3.60;99.90
16801;DHT22;8518;53.236;10.384;2024-01-10T16:25:19;-3.20;99.90
16801;DHT22;8518;53.236;10.384;2024-01-10T16:27:45;-3.50;99.90
16801;DHT22;8518;53.236;10.384;2024-01-10T16:30:14;-0.80;99.90
16801;DHT22;8518;53.236;10.384;2024-01-10T16:32:39;-3.20;99.90
16801;DHT22;8518;53.236;10.384;2024-01-10T16:35:06;-3.40;99.90
16801;DHT22;8518;53.236;10.384;2024-01-10T16:37:32;-3.10;99.90
16801;DHT22;8518;53.236;10.384;2024-01-10T16:43:01;-4.10;99.90
16801;DHT22;8518;53.236;10.384;2024-01-10T16:48:29;-3.30;99.90
16801;DHT22;8518;53.236;10.384;2024-01-10T16:50:55;-3.20;99.90
16801;DHT22;8518;53.236;10.384;2024-01-10T16:53:20;-3.40;99.90
16801;DHT22;8518;53.236;10.384;2024-01-10T16:55:46;-3.20;99.90
16801;DHT22;8518;53.236;10.384;2024-01-10T16:58:12;-3.30;99.90
16801;DHT22;8518;53.236;10.384;2024-01-10T17:00:37;-3.40;99.90
16801;DHT22;8518;53.236;10.384;2024-01-10T17:03:05;-3.20;99.90
16801;DHT22;8518;53.236;10.384;2024-01-10T17:05:33;-3.40;99.90
16801;DHT22;8518;53.236;10.384;2024-01-10T17:11:02;-3.10;99.90
16801;DHT22;8518;53.236;10.384;2024-01-10T17:13:28;-3.20;99.90
16801;DHT22;8518;53.236;10.384;2024-01-10T17:15:54;-3.20;99.90
16801;DHT22;8518;53.236;10.384;2024-01-10T17:21:22;-2.50;99.90
16801;DHT22;8518;53.236;10.384;2024-01-10T17:23:48;-3.40;99.90
16801;DHT22;8518;53.236;10.384;2024-01-10T17:26:13;-3.60;99.90
16801;DHT22;8518;53.236;10.384;2024-01-10T17:31:42;-3.30;99.90
16801;DHT22;8518;53.236;10.384;2024-01-10T17:34:07;-2.40;99.90
16801;DHT22;8518;53.236;10.384;2024-01-10T17:36:36;-3.20;99.90
16801;DHT22;8518;53.236;10.384;2024-01-10T17:42:05;-3.10;99.90
16801;DHT22;8518;53.236;10.384;2024-01-10T17:44:30;-2.00;99.90
16801;DHT22;8518;53.236;10.384;2024-01-10T17:46:56;-3.10;99.90
16801;DHT22;8518;53.236;10.384;2024-01-10T17:52:24;-3.30;99.90
16801;DHT22;8518;53.236;10.384;2024-01-10T17:57:53;-3.30;99.90
16801;DHT22;8518;53.236;10.384;2024-01-10T18:00:19;-3.00;99.90
16801;DHT22;8518;53.236;10.384;2024-01-10T18:02:44;-1.60;99.90
16801;DHT22;8518;53.236;10.384;2024-01-10T18:05:10;-3.30;99.90
16801;DHT22;8518;53.236;10.384;2024-01-10T18:07:35;-3.60;99.90
16801;DHT22;8518;53.236;10.384;2024-01-10T18:10:01;-3.20;99.90
16801;DHT22;8518;53.236;10.384;2024-01-10T18:12:28;-3.30;99.90
16801;DHT22;8518;53.236;10.384;2024-01-10T18:14:53;-3.20;99.90
16801;DHT22;8518;53.236;10.384;2024-01-10T18:17:19;-3.30;99.90
16801;DHT22;8518;53.236;10.384;2024-01-10T18:22:47;-3.30;99.90
16801;DHT22;8518;53.236;10.384;2024-01-10T18:25:13;-3.20;99.90
16801;DHT22;8518;53.236;10.384;2024-01-10T18:27:38;-3.30;99.90
16801;DHT22;8518;53.236;10.384;2024-01-10T18:30:04;-2.80;99.90
16801;DHT22;8518;53.236;10.384;2024-01-10T18:32:31;-3.50;99.90
16801;DHT22;8518;53.236;10.384;2024-01-10T18:34:57;-3.60;99.90
16801;DHT22;8518;53.236;10.384;2024-01-10T18:37:22;-3.60;99.90
16801;DHT22;8518;53.236;10.384;2024-01-10T18:42:51;-2.80;99.90
16801;DHT22;8518;53.236;10.384;2024-01-10T18:45:16;-3.40;99.90
16801;DHT22;8518;53.236;10.384;2024-01-10T18:47:42;-3.30;99.90
16801;DHT22;8518;53.236;10.384;2024-01-10T18:50:08;-3.80;99.90
16801;DHT22;8518;53.236;10.384;2024-01-10T18:52:34;-3.30;99.90
16801;DHT22;8518;53.236;10.384;2024-01-10T18:54:59;-3.50;99.90
16801;DHT22;8518;53.236;10.384;2024-01-10T18:57:25;-0.90;99.90
16801;DHT22;8518;53.236;10.384;2024-01-10T18:59:51;-3.90;99.90
16801;DHT22;8518;53.236;10.384;2024-01-10T19:02:16;-3.20;99.90